createdAt,value
2019-04-01T00:00:31.488Z,61.90
2019-04-01T00:03:01.839Z,62.10
2019-04-01T00:05:32.099Z,62.60
2019-04-01T00:08:02.665Z,62.20
2019-04-01T00:10:32.953Z,62.10
2019-04-01T00:13:03.285Z,62.40
2019-04-01T00:15:33.595Z,62.50
2019-04-01T00:18:04.166Z,62.90
2019-04-01T00:20:35.444Z,62.90
2019-04-01T00:23:05.794Z,63.00
2019-04-01T00:25:36.475Z,63.20
2019-04-01T00:28:06.843Z,62.90
2019-04-01T00:30:37.115Z,63.40
2019-04-01T00:33:07.454Z,63.60
2019-04-01T00:35:37.724Z,63.90
2019-04-01T00:38:08.004Z,64.20
2019-04-01T00:40:38.350Z,64.00
2019-04-01T00:43:10.294Z,64.20
2019-04-01T00:45:42.124Z,64.40
2019-04-01T00:48:13.492Z,64.60
2019-04-01T00:50:43.768Z,64.70
2019-04-01T00:53:17.762Z,64.80
2019-04-01T00:55:45.999Z,64.90
2019-04-01T00:58:16.363Z,64.90
2019-04-01T01:00:46.641Z,65.40
2019-04-01T01:03:17.011Z,65.50
2019-04-01T01:05:47.254Z,65.70
2019-04-01T01:08:17.629Z,65.80
2019-04-01T01:10:47.893Z,65.90
2019-04-01T01:13:18.223Z,65.90
2019-04-01T01:15:48.537Z,66.10
2019-04-01T01:18:18.768Z,66.40
2019-04-01T01:20:49.073Z,66.50
2019-04-01T01:23:19.312Z,66.50
2019-04-01T01:25:49.628Z,66.40
2019-04-01T01:28:19.901Z,66.70
2019-04-01T01:30:50.205Z,66.90
2019-04-01T01:33:20.477Z,67.10
2019-04-01T01:35:50.775Z,67.40
2019-04-01T01:38:21.043Z,67.60
2019-04-01T01:40:51.366Z,67.60
2019-04-01T01:43:21.624Z,67.90
2019-04-01T01:45:52.995Z,68.10
2019-04-01T01:48:23.283Z,68.40
2019-04-01T01:50:53.621Z,68.80
2019-04-01T01:53:23.931Z,69.20
2019-04-01T01:55:54.265Z,69.60
2019-04-01T01:58:24.522Z,70.10
2019-04-01T02:00:56.372Z,70.40
2019-04-01T02:03:26.646Z,71.40
2019-04-01T02:05:56.946Z,71.40
2019-04-01T02:08:27.212Z,71.90
2019-04-01T02:10:57.541Z,72.30
2019-04-01T02:13:27.749Z,72.90
2019-04-01T02:15:58.006Z,73.50
2019-04-01T02:18:28.279Z,73.90
2019-04-01T02:20:58.580Z,73.90
2019-04-01T02:23:28.866Z,74.20
2019-04-01T02:25:59.176Z,74.30
2019-04-01T02:28:29.444Z,74.50
2019-04-01T02:30:59.749Z,74.60
2019-04-01T02:33:30.022Z,74.80
2019-04-01T02:36:00.348Z,75.60
2019-04-01T02:38:30.714Z,75.50
2019-04-01T02:41:01.169Z,75.50
2019-04-01T02:43:31.364Z,75.60
2019-04-01T02:46:02.620Z,75.90
2019-04-01T02:48:32.941Z,76.40
2019-04-01T02:51:03.242Z,76.70
2019-04-01T02:53:33.522Z,76.90
2019-04-01T02:56:03.856Z,77.20
2019-04-01T02:58:34.216Z,77.40
2019-04-01T03:01:05.586Z,77.50
2019-04-01T03:03:35.889Z,77.40
2019-04-01T03:06:06.235Z,78.10
2019-04-01T03:08:36.592Z,78.30
2019-04-01T03:11:10.378Z,78.60
2019-04-01T03:13:38.782Z,78.60
2019-04-01T03:16:10.824Z,79.00
2019-04-01T03:18:41.137Z,79.20
2019-04-01T03:21:11.345Z,79.20
2019-04-01T03:23:41.662Z,79.50
2019-04-01T03:26:11.932Z,79.70
2019-04-01T03:28:42.223Z,79.90
2019-04-01T03:31:12.678Z,80.10
2019-04-01T03:33:43.242Z,80.00
2019-04-01T03:36:13.525Z,80.20
2019-04-01T03:38:43.830Z,80.50
2019-04-01T03:41:14.103Z,80.50
2019-04-01T03:43:44.424Z,80.80
2019-04-01T03:46:14.641Z,81.20
2019-04-01T03:48:44.968Z,81.20
2019-04-01T03:51:15.247Z,81.40
2019-04-01T03:53:45.559Z,81.30
2019-04-01T03:56:15.866Z,81.20
2019-04-01T03:58:46.190Z,81.20
2019-04-01T04:01:16.453Z,81.20
2019-04-01T04:03:46.705Z,81.50
2019-04-01T04:06:16.998Z,81.60
2019-04-01T04:08:47.305Z,82.00
2019-04-01T04:11:17.593Z,82.20
2019-04-01T04:13:47.886Z,82.40
2019-04-01T04:16:18.169Z,82.70
2019-04-01T04:18:48.483Z,82.90
2019-04-01T04:21:18.733Z,82.90
2019-04-01T04:23:49.034Z,83.20
2019-04-01T04:26:19.334Z,83.30
2019-04-01T04:28:49.602Z,83.30
2019-04-01T04:31:19.933Z,84.00
2019-04-01T04:33:50.221Z,84.20
2019-04-01T04:36:20.635Z,84.10
2019-04-01T04:38:50.919Z,84.40
2019-04-01T04:41:21.217Z,84.40
2019-04-01T04:43:51.496Z,84.50
2019-04-01T04:46:21.836Z,84.60
2019-04-01T04:48:52.103Z,84.80
2019-04-01T04:51:22.411Z,84.90
2019-04-01T04:53:52.722Z,85.80
2019-04-01T04:56:23.026Z,85.20
2019-04-01T04:58:53.295Z,85.40
2019-04-01T05:01:23.676Z,85.60
2019-04-01T05:03:53.949Z,85.80
2019-04-01T05:06:24.313Z,86.00
2019-04-01T05:08:54.642Z,86.90
2019-04-01T05:11:25.005Z,86.10
2019-04-01T05:13:56.759Z,86.10
2019-04-01T05:16:27.276Z,86.90
2019-04-01T05:18:57.588Z,86.10
2019-04-01T05:21:28.832Z,86.20
2019-04-01T05:24:00.116Z,86.20
2019-04-01T05:26:31.717Z,86.40
2019-04-01T05:29:04.530Z,86.30
2019-04-01T05:31:35.384Z,86.50
2019-04-01T05:34:05.775Z,86.50
2019-04-01T05:36:36.993Z,86.30
2019-04-01T05:39:07.801Z,86.40
2019-04-01T05:41:38.112Z,86.50
2019-04-01T05:44:09.143Z,86.30
2019-04-01T05:46:40.155Z,86.10
2019-04-01T05:49:10.463Z,86.10
2019-04-01T05:51:40.779Z,86.10
2019-04-01T05:54:12.200Z,85.80
2019-04-01T05:56:42.722Z,85.90
2019-04-01T05:59:13.058Z,85.40
2019-04-01T06:01:44.998Z,85.20
2019-04-01T06:04:15.199Z,85.10
2019-04-01T06:06:48.704Z,84.80
2019-04-01T06:09:17.941Z,84.90
2019-04-01T06:11:48.204Z,84.80
2019-04-01T06:14:19.879Z,83.90
2019-04-01T06:16:50.136Z,83.00
2019-04-01T06:19:20.456Z,82.80
2019-04-01T06:21:51.565Z,82.50
2019-04-01T06:24:24.740Z,81.80
2019-04-01T06:26:54.211Z,81.40
2019-04-01T06:29:24.519Z,82.10
2019-04-01T06:31:54.795Z,82.20
2019-04-01T06:34:25.269Z,80.70
2019-04-01T06:36:55.549Z,80.30
2019-04-01T06:39:25.818Z,80.20
2019-04-01T06:41:56.117Z,79.90
2019-04-01T06:44:26.436Z,79.50
2019-04-01T06:46:56.761Z,78.80
2019-04-01T06:49:27.799Z,78.80
2019-04-01T06:51:58.049Z,78.60
2019-04-01T06:54:28.383Z,78.30
2019-04-01T06:56:58.939Z,78.00
2019-04-01T06:59:29.341Z,78.00
2019-04-01T07:01:59.689Z,77.40
2019-04-01T07:04:31.018Z,76.50
2019-04-01T07:07:01.811Z,76.30
2019-04-01T07:09:32.163Z,76.90
2019-04-01T07:12:02.592Z,75.30
2019-04-01T07:14:32.957Z,74.20
2019-04-01T07:17:03.497Z,73.40
2019-04-01T07:19:34.007Z,73.20
2019-04-01T07:22:04.235Z,72.90
2019-04-01T07:24:35.338Z,72.40
2019-04-01T07:27:08.064Z,72.10
2019-04-01T07:29:37.541Z,71.90
2019-04-01T07:32:07.842Z,71.00
2019-04-01T07:34:38.678Z,69.70
2019-04-01T07:37:09.052Z,69.70
2019-04-01T07:39:39.360Z,69.30
2019-04-01T07:42:09.645Z,68.80
2019-04-01T07:44:39.905Z,68.00
2019-04-01T07:47:10.207Z,67.10
2019-04-01T07:49:40.465Z,66.50
2019-04-01T07:52:11.518Z,66.60
2019-04-01T07:54:42.055Z,65.70
2019-04-01T07:57:12.354Z,64.80
2019-04-01T07:59:43.949Z,65.80
2019-04-01T08:02:15.714Z,65.00
2019-04-01T08:04:46.344Z,64.20
2019-04-01T08:07:17.386Z,63.20
2019-04-01T08:09:47.717Z,62.80
2019-04-01T08:12:19.281Z,62.50
2019-04-01T08:14:49.691Z,61.60
2019-04-01T08:17:21.106Z,58.60
2019-04-01T08:19:51.639Z,57.00
2019-04-01T08:22:22.383Z,56.20
2019-04-01T08:24:53.176Z,55.50
2019-04-01T08:27:23.576Z,54.00
2019-04-01T08:29:54.072Z,52.80
2019-04-01T08:32:24.394Z,53.60
2019-04-01T08:34:54.861Z,51.00
2019-04-01T08:37:25.158Z,52.70
2019-04-01T08:39:55.419Z,52.80
2019-04-01T08:42:25.718Z,51.40
2019-04-01T08:44:56.088Z,48.90
2019-04-01T08:47:26.416Z,47.80
2019-04-01T08:49:56.675Z,48.10
2019-04-01T08:52:26.965Z,48.90
2019-04-01T08:54:57.168Z,48.40
2019-04-01T08:57:27.405Z,48.90
2019-04-01T08:59:57.800Z,49.70
2019-04-01T09:02:28.188Z,49.90
2019-04-01T09:04:58.468Z,49.60
2019-04-01T09:07:28.802Z,46.20
2019-04-01T09:10:00.042Z,45.40
2019-04-01T09:12:30.752Z,46.80
2019-04-01T09:15:01.913Z,46.00
2019-04-01T09:17:32.302Z,46.80
2019-04-01T09:20:03.977Z,46.20
2019-04-01T09:22:34.293Z,46.20
2019-04-01T09:25:06.081Z,45.60
2019-04-01T09:27:36.415Z,45.10
2019-04-01T09:30:08.117Z,45.50
2019-04-01T09:32:38.396Z,43.90
2019-04-01T09:35:09.085Z,42.70
2019-04-01T09:37:39.364Z,42.10
2019-04-01T09:40:10.666Z,40.70
2019-04-01T09:42:40.944Z,41.10
2019-04-01T09:45:11.395Z,42.20
2019-04-01T09:47:41.863Z,41.90
2019-04-01T09:50:12.435Z,41.60
2019-04-01T09:52:42.702Z,42.10
2019-04-01T09:55:13.070Z,42.20
2019-04-01T09:57:43.372Z,42.70
2019-04-01T10:00:14.224Z,43.00
2019-04-01T10:02:44.697Z,43.50
2019-04-01T10:05:15.843Z,43.80
2019-04-01T10:07:46.360Z,42.50
2019-04-01T10:10:16.790Z,42.10
2019-04-01T10:12:47.314Z,42.10
2019-04-01T10:15:18.105Z,41.90
2019-04-01T10:17:48.405Z,40.80
2019-04-01T10:20:18.672Z,41.40
2019-04-01T10:22:49.096Z,42.50
2019-04-01T10:25:19.358Z,42.80
2019-04-01T10:27:49.959Z,42.70
2019-04-01T10:30:21.645Z,41.90
2019-04-01T10:32:52.059Z,41.00
2019-04-01T10:35:22.326Z,41.40
2019-04-01T10:37:52.624Z,41.40
2019-04-01T10:40:22.873Z,41.10
2019-04-01T10:42:53.243Z,41.70
2019-04-01T10:45:23.506Z,42.20
2019-04-01T10:47:53.848Z,42.50
2019-04-01T10:50:24.122Z,43.50
2019-04-01T10:52:54.421Z,43.50
2019-04-01T10:55:24.696Z,44.20
2019-04-01T10:57:57.010Z,44.30
2019-04-01T11:00:27.314Z,44.70
2019-04-01T11:02:57.638Z,44.30
2019-04-01T11:05:28.228Z,44.20
2019-04-01T11:07:58.620Z,43.50
2019-04-01T11:10:28.982Z,41.10
2019-04-01T11:12:59.291Z,40.50
2019-04-01T11:15:31.539Z,41.20
2019-04-01T11:18:01.850Z,41.50
2019-04-01T11:20:32.421Z,41.50
2019-04-01T11:23:04.129Z,41.90
2019-04-01T11:25:34.555Z,41.70
2019-04-01T11:28:04.972Z,41.00
2019-04-01T11:30:36.902Z,40.70
2019-04-01T11:33:07.867Z,40.40
2019-04-01T11:35:39.600Z,40.60
2019-04-01T11:38:09.896Z,40.00
2019-04-01T11:40:40.095Z,39.00
2019-04-01T11:43:10.488Z,38.60
2019-04-01T11:45:40.812Z,38.50
2019-04-01T11:48:11.082Z,37.80
2019-04-01T11:50:41.406Z,37.60
2019-04-01T11:53:11.670Z,37.30
2019-04-01T11:55:41.947Z,37.80
2019-04-01T11:58:12.307Z,37.90
2019-04-01T12:00:42.581Z,38.50
2019-04-01T12:03:12.909Z,38.30
2019-04-01T12:05:43.238Z,38.30
2019-04-01T12:08:13.551Z,37.40
2019-04-01T12:10:43.881Z,37.00
2019-04-01T12:13:14.201Z,36.30
2019-04-01T12:15:46.079Z,36.60
2019-04-01T12:18:16.435Z,37.50
2019-04-01T12:20:46.731Z,38.10
2019-04-01T12:23:17.110Z,37.00
2019-04-01T12:25:47.376Z,38.00
2019-04-01T12:28:17.723Z,36.70
2019-04-01T12:30:47.977Z,36.60
2019-04-01T12:33:18.656Z,37.40
2019-04-01T12:35:49.079Z,36.70
2019-04-01T12:38:20.185Z,36.20
2019-04-01T12:40:50.449Z,36.00
2019-04-01T12:43:23.526Z,35.70
2019-04-01T12:45:52.858Z,35.60
2019-04-01T12:48:25.491Z,34.60
2019-04-01T12:50:55.214Z,34.00
2019-04-01T12:53:25.549Z,33.90
2019-04-01T12:55:55.817Z,34.20
2019-04-01T12:58:26.181Z,35.30
2019-04-01T13:00:56.462Z,34.30
2019-04-01T13:03:26.747Z,34.40
2019-04-01T13:05:57.080Z,34.60
2019-04-01T13:08:27.396Z,34.60
2019-04-01T13:10:58.831Z,35.50
2019-04-01T13:13:29.200Z,35.40
2019-04-01T13:15:59.456Z,34.50
2019-04-01T13:18:29.784Z,34.50
2019-04-01T13:21:00.106Z,34.40
2019-04-01T13:23:30.432Z,35.00
2019-04-01T13:26:00.684Z,34.70
2019-04-01T13:28:30.971Z,33.80
2019-04-01T13:31:01.295Z,33.70
2019-04-01T13:33:31.605Z,34.40
2019-04-01T13:36:01.931Z,35.00
2019-04-01T13:38:32.220Z,34.10
2019-04-01T13:41:02.509Z,34.10
2019-04-01T13:43:32.796Z,34.00
2019-04-01T13:46:03.108Z,33.60
2019-04-01T13:48:33.406Z,33.80
2019-04-01T13:51:03.681Z,34.80
2019-04-01T13:53:34.003Z,33.70
2019-04-01T13:56:04.269Z,33.80
2019-04-01T13:58:34.513Z,33.20
2019-04-01T14:01:04.817Z,33.10
2019-04-01T14:03:35.224Z,33.10
2019-04-01T14:06:06.596Z,33.40
2019-04-01T14:08:38.045Z,33.10
2019-04-01T14:11:08.322Z,33.50
2019-04-01T14:13:38.638Z,34.10
2019-04-01T14:16:09.310Z,33.30
2019-04-01T14:18:39.920Z,33.40
2019-04-01T14:21:17.405Z,33.00
2019-04-01T14:23:42.171Z,33.20
2019-04-01T14:26:12.551Z,33.50
2019-04-01T14:28:46.033Z,34.40
2019-04-01T14:31:19.152Z,34.40
2019-04-01T14:33:48.248Z,34.10
2019-04-01T14:36:18.604Z,34.20
2019-04-01T14:38:49.022Z,34.00
2019-04-01T14:41:19.329Z,33.20
2019-04-01T14:43:49.640Z,32.90
2019-04-01T14:46:20.932Z,33.00
2019-04-01T14:48:51.220Z,33.40
2019-04-01T14:51:21.560Z,33.40
2019-04-01T14:53:55.075Z,33.40
2019-04-01T14:56:25.393Z,34.60
2019-04-01T14:58:55.689Z,34.20
2019-04-01T15:01:25.993Z,34.70
2019-04-01T15:03:56.254Z,34.40
2019-04-01T15:06:26.539Z,33.90
2019-04-01T15:08:56.731Z,34.30
2019-04-01T15:11:27.031Z,34.90
2019-04-01T15:14:00.121Z,34.40
2019-04-01T15:16:29.331Z,34.20
2019-04-01T15:18:59.634Z,33.70
2019-04-01T15:21:29.909Z,33.60
2019-04-01T15:24:00.280Z,34.30
2019-04-01T15:26:30.652Z,34.50
2019-04-01T15:29:00.940Z,34.70
2019-04-01T15:31:32.471Z,34.20
2019-04-01T15:34:02.717Z,34.00
2019-04-01T15:36:33.598Z,34.00
2019-04-01T15:39:05.568Z,33.70
2019-04-01T15:41:36.525Z,34.30
2019-04-01T15:44:06.790Z,34.10
2019-04-01T15:46:37.131Z,34.20
2019-04-01T15:49:11.110Z,33.70
2019-04-01T15:51:39.310Z,33.50
2019-04-01T15:54:09.613Z,33.00
2019-04-01T15:56:41.789Z,33.30
2019-04-01T15:59:11.735Z,33.30
2019-04-01T16:01:41.991Z,33.50
2019-04-01T16:04:16.198Z,33.60
2019-04-01T16:06:44.669Z,33.40
2019-04-01T16:09:15.077Z,33.10
2019-04-01T16:11:45.366Z,33.50
2019-04-01T16:14:19.309Z,33.30
2019-04-01T16:16:48.669Z,33.20
2019-04-01T16:19:18.977Z,33.50
2019-04-01T16:21:49.310Z,33.80
2019-04-01T16:24:19.586Z,34.00
2019-04-01T16:26:50.422Z,33.80
2019-04-01T16:29:20.696Z,33.70
2019-04-01T16:31:51.107Z,33.20
2019-04-01T16:34:21.458Z,32.70
2019-04-01T16:36:51.671Z,32.90
2019-04-01T16:39:21.961Z,32.20
2019-04-01T16:41:52.251Z,32.00
2019-04-01T16:44:22.625Z,31.80
2019-04-01T16:46:52.955Z,30.70
2019-04-01T16:49:23.654Z,29.70
2019-04-01T16:51:53.976Z,28.70
2019-04-01T16:54:24.234Z,27.80
2019-04-01T16:56:57.820Z,26.90
2019-04-01T16:59:28.070Z,25.90
2019-04-01T17:01:58.467Z,25.80
2019-04-01T17:04:28.827Z,26.30
2019-04-01T17:06:59.152Z,26.70
2019-04-01T17:09:29.525Z,27.60
2019-04-01T17:11:59.839Z,27.10
2019-04-01T17:14:30.167Z,27.60
2019-04-01T17:17:00.937Z,28.40
2019-04-01T17:19:47.623Z,29.00
2019-04-01T17:22:17.768Z,29.90
2019-04-01T17:24:50.840Z,31.00
2019-04-01T17:27:29.979Z,31.90
2019-04-01T17:30:00.313Z,33.00
2019-04-01T17:32:30.897Z,33.90
2019-04-01T17:35:01.280Z,35.00
2019-04-01T17:37:31.630Z,35.80
2019-04-01T17:40:01.952Z,36.40
2019-04-01T17:42:32.625Z,36.80
2019-04-01T17:45:26.398Z,37.40
2019-04-01T17:48:00.215Z,37.80
2019-04-01T17:50:29.194Z,38.40
2019-04-01T17:53:00.145Z,39.00
2019-04-01T17:55:30.571Z,39.20
2019-04-01T17:58:00.952Z,39.50
2019-04-01T18:00:32.913Z,39.80
2019-04-01T18:03:04.187Z,40.10
2019-04-01T18:05:35.388Z,40.30
2019-04-01T18:08:05.802Z,40.60
2019-04-01T18:10:39.204Z,40.80
2019-04-01T18:13:09.276Z,41.10
2019-04-01T18:15:39.623Z,41.50
2019-04-01T18:18:10.239Z,41.80
2019-04-01T18:20:40.808Z,42.00
2019-04-01T18:23:11.515Z,42.20
2019-04-01T18:25:41.777Z,42.40
2019-04-01T18:28:13.080Z,42.40
2019-04-01T18:30:43.645Z,42.80
2019-04-01T18:33:14.022Z,43.40
2019-04-01T18:35:44.916Z,44.80
2019-04-01T18:38:17.059Z,43.50
2019-04-01T18:40:47.630Z,43.80
2019-04-01T18:43:17.979Z,43.50
2019-04-01T18:45:48.264Z,43.60
2019-04-01T18:48:19.696Z,43.70
2019-04-01T18:50:50.616Z,43.90
2019-04-01T18:53:20.892Z,44.00
2019-04-01T18:55:52.907Z,44.10
2019-04-01T18:58:25.165Z,44.30
2019-04-01T19:00:59.772Z,44.30
2019-04-01T19:03:37.014Z,44.60
2019-04-01T19:06:07.512Z,44.70
2019-04-01T19:08:42.357Z,44.60
2019-04-01T19:11:12.499Z,44.90
2019-04-01T19:13:43.403Z,44.80
2019-04-01T19:16:16.565Z,45.20
2019-04-01T19:18:45.707Z,45.50
2019-04-01T19:21:16.042Z,45.70
2019-04-01T19:23:46.355Z,45.80
2019-04-01T19:26:16.661Z,46.00
2019-04-01T19:28:47.195Z,46.20
2019-04-01T19:31:17.721Z,46.40
2019-04-01T19:33:48.154Z,46.40
2019-04-01T19:36:18.505Z,46.80
2019-04-01T19:38:48.792Z,46.90
2019-04-01T19:41:19.546Z,47.00
2019-04-01T19:43:52.196Z,47.30
2019-04-01T19:46:22.666Z,47.50
2019-04-01T19:48:54.522Z,47.60
2019-04-01T19:51:24.866Z,47.60
2019-04-01T19:53:55.140Z,47.90
2019-04-01T19:56:25.510Z,47.90
2019-04-01T19:58:55.932Z,48.00
2019-04-01T20:01:26.763Z,48.20
2019-04-01T20:04:02.908Z,48.40
2019-04-01T20:06:33.327Z,48.60
2019-04-01T20:09:05.787Z,48.90
2019-04-01T20:11:36.369Z,49.00
2019-04-01T20:14:06.612Z,49.30
2019-04-01T20:16:36.970Z,49.40
2019-04-01T20:19:07.652Z,50.00
2019-04-01T20:21:37.962Z,50.20
2019-04-01T20:24:08.216Z,50.30
2019-04-01T20:26:38.526Z,50.60
2019-04-01T20:29:08.751Z,51.00
2019-04-01T20:31:40.121Z,51.20
2019-04-01T20:34:19.540Z,51.60
2019-04-01T20:36:42.376Z,52.00
2019-04-01T20:39:13.688Z,52.10
2019-04-01T20:41:43.992Z,52.50
2019-04-01T20:44:14.287Z,52.80
2019-04-01T20:46:44.605Z,53.10
2019-04-01T20:49:14.964Z,54.10
2019-04-01T20:51:45.338Z,53.90
2019-04-01T20:54:16.188Z,54.30
2019-04-01T20:56:46.832Z,54.50
2019-04-01T20:59:17.111Z,54.70
2019-04-01T21:01:47.532Z,55.00
2019-04-01T21:04:17.735Z,55.20
2019-04-01T21:06:48.065Z,55.50
2019-04-01T21:09:18.363Z,55.60
2019-04-01T21:11:48.762Z,56.00
2019-04-01T21:14:19.035Z,56.80
2019-04-01T21:16:49.329Z,56.50
2019-04-01T21:19:19.642Z,56.80
2019-04-01T21:21:49.917Z,57.10
2019-04-01T21:24:20.763Z,57.30
2019-04-01T21:26:51.196Z,57.50
2019-04-01T21:29:22.841Z,57.70
2019-04-01T21:31:53.688Z,57.80
2019-04-01T21:34:24.155Z,58.20
2019-04-01T21:36:54.548Z,58.30
2019-04-01T21:39:24.825Z,58.40
2019-04-01T21:41:55.170Z,58.70
2019-04-01T21:44:25.360Z,58.80
2019-04-01T21:46:55.735Z,59.10
2019-04-01T21:49:25.963Z,59.30
2019-04-01T21:51:56.455Z,59.50
2019-04-01T21:54:27.181Z,59.50
2019-04-01T21:56:58.501Z,59.90
2019-04-01T21:59:28.695Z,60.10
2019-04-01T22:01:59.164Z,60.40
2019-04-01T22:04:29.464Z,60.50
2019-04-01T22:06:59.810Z,60.90
2019-04-01T22:09:30.131Z,61.20
2019-04-01T22:12:00.506Z,61.60
2019-04-01T22:14:40.927Z,61.60
2019-04-01T22:17:11.236Z,62.00
2019-04-01T22:19:41.833Z,62.10
2019-04-01T22:22:12.133Z,62.20
2019-04-01T22:24:42.483Z,62.60
2019-04-01T22:27:12.841Z,62.60
2019-04-01T22:29:43.244Z,62.90
2019-04-01T22:32:13.554Z,62.90
2019-04-01T22:34:46.077Z,63.20
2019-04-01T22:37:26.639Z,63.20
2019-04-01T22:39:48.820Z,63.30
2019-04-01T22:42:19.259Z,63.60
2019-04-01T22:44:49.864Z,63.40
2019-04-01T22:47:20.433Z,63.40
2019-04-01T22:49:50.878Z,63.70
2019-04-01T22:52:21.203Z,63.90
2019-04-01T22:54:54.214Z,64.00
2019-04-01T22:57:24.600Z,63.90
2019-04-01T22:59:54.917Z,63.80
2019-04-01T23:02:25.239Z,63.90
2019-04-01T23:05:04.500Z,63.90
2019-04-01T23:07:34.810Z,63.80
2019-04-01T23:10:07.905Z,64.20
2019-04-01T23:12:38.272Z,64.00
2019-04-01T23:15:10.365Z,64.10
2019-04-01T23:17:40.661Z,63.80
2019-04-01T23:20:11.337Z,63.90
2019-04-01T23:22:41.745Z,63.70
2019-04-01T23:25:12.029Z,63.70
2019-04-01T23:27:42.375Z,63.70
2019-04-01T23:30:13.651Z,63.40
2019-04-01T23:32:45.512Z,63.40
2019-04-01T23:35:16.131Z,63.40
2019-04-01T23:37:46.451Z,63.30
2019-04-01T23:40:18.258Z,63.10
2019-04-01T23:42:49.570Z,63.20
2019-04-01T23:45:20.991Z,63.00
2019-04-01T23:47:51.549Z,62.90
2019-04-01T23:50:21.825Z,62.80
2019-04-01T23:52:52.186Z,63.40
2019-04-01T23:55:22.461Z,62.70
2019-04-01T23:57:55.747Z,62.60
